WXM80 ListenWXM80 Stop

You find our weather info also at:

UK Metoffice

WeatherCloud

Weather Underground

Northeastern Weather Network

AWEKAS

Citizen Weather Observer Program (CWOP)

HAMweather, WeatherForYou, PWS Weather


Weather Underground History page Text

Daily Summary for March 6, 2018 Units:  Both    English   Metric
« Previous Day
Next Day »
Daily Weekly Monthly Yearly Custom
  High: Low: Average:
Temperature: 45.9 °F /  7.7 °C 32.5 °F /  0.3 °C 38.3 °F /  3.5 °C
Dew Point: 32.7 °F /  0.4 °C 28.2 °F /  -2.1 °C 30.2 °F /  -1 °C
Humidity: 85 % 53 % 73 %
Wind Speed: 9.3 mph /  15 km/h - 3.2 mph /  5.1 km/h
Wind Gust: 11.5 mph /  18.5 km/h - -
Wind:- - ESE
Pressure: 29.82 in /  1009.7 hPa 29.71 in /  1006 hPa -
Precipitation: 0.00 in /  0 mm    
Historical Graphs
 
 
Tabular Data for March 6, 2018
Time Temperature Dew Point Pressure Wind Wind Speed Wind Gust Humidity Rainfall Rate (Hourly)
00:04 35.2 °F /  1.8 °C 29.0 °F /  -1.7 °C 29.78 in /  1008.4 hPa North 3.8 mph /  6.1 km/h 6.9 mph /  11.1 km/h 78 % 0.00 in /  0 mm
00:09 35.1 °F /  1.7 °C 28.9 °F /  -1.7 °C 29.78 in /  1008.4 hPa NNE 5.4 mph /  8.7 km/h 6.9 mph /  11.1 km/h 78 % 0.00 in /  0 mm
00:14 35.1 °F /  1.7 °C 28.9 °F /  -1.7 °C 29.78 in /  1008.4 hPa NNE 5.2 mph /  8.4 km/h 8.1 mph /  13 km/h 78 % 0.00 in /  0 mm
00:19 35.1 °F /  1.7 °C 28.9 °F /  -1.7 °C 29.78 in /  1008.4 hPa North 3.5 mph /  5.6 km/h 6.9 mph /  11.1 km/h 78 % 0.00 in /  0 mm
00:24 35.0 °F /  1.7 °C 28.8 °F /  -1.8 °C 29.78 in /  1008.4 hPa North 4.8 mph /  7.7 km/h 8.0 mph /  12.9 km/h 78 % 0.00 in /  0 mm
00:29 35.1 °F /  1.7 °C 28.9 °F /  -1.7 °C 29.78 in /  1008.4 hPa NNE 2.2 mph /  3.5 km/h 5.8 mph /  9.3 km/h 78 % 0.00 in /  0 mm
00:34 35.0 °F /  1.7 °C 29.1 °F /  -1.6 °C 29.79 in /  1008.7 hPa North 3.6 mph /  5.8 km/h 5.8 mph /  9.3 km/h 79 % 0.00 in /  0 mm
00:39 34.9 °F /  1.6 °C 29.0 °F /  -1.7 °C 29.79 in /  1008.7 hPa NNW 3.9 mph /  6.3 km/h 6.0 mph /  9.7 km/h 79 % 0.00 in /  0 mm
00:44 34.9 °F /  1.6 °C 28.7 °F /  -1.8 °C 29.79 in /  1008.7 hPa NNW 5.0 mph /  8 km/h 5.8 mph /  9.3 km/h 78 % 0.00 in /  0 mm
00:49 34.8 °F /  1.6 °C 28.6 °F /  -1.9 °C 29.79 in /  1008.7 hPa North 4.7 mph /  7.6 km/h 7.0 mph /  11.3 km/h 78 % 0.00 in /  0 mm
00:54 34.8 °F /  1.6 °C 29.0 °F /  -1.7 °C 29.79 in /  1008.7 hPa NNE 3.4 mph /  5.5 km/h 5.8 mph /  9.3 km/h 79 % 0.00 in /  0 mm
00:59 34.8 °F /  1.6 °C 29.0 °F /  -1.7 °C 29.79 in /  1008.7 hPa NNE 5.7 mph /  9.2 km/h 6.0 mph /  9.7 km/h 79 % 0.00 in /  0 mm
01:04 34.7 °F /  1.5 °C 28.9 °F /  -1.7 °C 29.79 in /  1008.7 hPa North 2.5 mph /  4 km/h 5.8 mph /  9.3 km/h 79 % 0.00 in /  0 mm
01:10 34.7 °F /  1.5 °C 28.9 °F /  -1.7 °C 29.79 in /  1008.7 hPa North 1.5 mph /  2.4 km/h 5.8 mph /  9.3 km/h 79 % 0.00 in /  0 mm
01:15 34.7 °F /  1.5 °C 28.9 °F /  -1.7 °C 29.79 in /  1008.7 hPa NNW 1.4 mph /  2.3 km/h 5.8 mph /  9.3 km/h 79 % 0.00 in /  0 mm
01:20 34.6 °F /  1.4 °C 28.8 °F /  -1.8 °C 29.79 in /  1008.7 hPa NNE 4.0 mph /  6.4 km/h 5.8 mph /  9.3 km/h 79 % 0.00 in /  0 mm
01:25 34.6 °F /  1.4 °C 29.1 °F /  -1.6 °C 29.79 in /  1008.7 hPa NNE 3.2 mph /  5.1 km/h 6.0 mph /  9.7 km/h 80 % 0.00 in /  0 mm
01:30 34.5 °F /  1.4 °C 29.0 °F /  -1.7 °C 29.79 in /  1008.7 hPa North 1.2 mph /  1.9 km/h 5.0 mph /  8 km/h 80 % 0.00 in /  0 mm
01:35 34.4 °F /  1.3 °C 28.9 °F /  -1.7 °C 29.78 in /  1008.4 hPa North 2.0 mph /  3.2 km/h 5.8 mph /  9.3 km/h 80 % 0.00 in /  0 mm
01:40 34.4 °F /  1.3 °C 28.9 °F /  -1.7 °C 29.79 in /  1008.7 hPa NNE 4.8 mph /  7.7 km/h 8.1 mph /  13 km/h 80 % 0.00 in /  0 mm
01:45 34.3 °F /  1.3 °C 28.8 °F /  -1.8 °C 29.78 in /  1008.4 hPa NNE 2.2 mph /  3.5 km/h 3.5 mph /  5.6 km/h 80 % 0.00 in /  0 mm
01:50 34.3 °F /  1.3 °C 28.8 °F /  -1.8 °C 29.78 in /  1008.4 hPa North 3.3 mph /  5.3 km/h 4.6 mph /  7.4 km/h 80 % 0.00 in /  0 mm
01:55 34.2 °F /  1.2 °C 28.7 °F /  -1.8 °C 29.78 in /  1008.4 hPa North 3.4 mph /  5.5 km/h 5.8 mph /  9.3 km/h 80 % 0.00 in /  0 mm
02:00 34.3 °F /  1.3 °C 29.1 °F /  -1.6 °C 29.78 in /  1008.4 hPa NNE 3.7 mph /  6 km/h 5.8 mph /  9.3 km/h 81 % 0.00 in /  0 mm
02:05 34.2 °F /  1.2 °C 29.0 °F /  -1.7 °C 29.78 in /  1008.4 hPa NNW 4.3 mph /  6.9 km/h 5.8 mph /  9.3 km/h 81 % 0.00 in /  0 mm
02:10 34.2 °F /  1.2 °C 29.0 °F /  -1.7 °C 29.78 in /  1008.4 hPa North 2.1 mph /  3.4 km/h 3.5 mph /  5.6 km/h 81 % 0.00 in /  0 mm
02:15 34.2 °F /  1.2 °C 29.0 °F /  -1.7 °C 29.78 in /  1008.4 hPa NNW 3.3 mph /  5.3 km/h 8.1 mph /  13 km/h 81 % 0.00 in /  0 mm
02:20 34.2 °F /  1.2 °C 29.0 °F /  -1.7 °C 29.78 in /  1008.4 hPa NNW 2.5 mph /  4 km/h 5.8 mph /  9.3 km/h 81 % 0.00 in /  0 mm
02:25 34.2 °F /  1.2 °C 29.0 °F /  -1.7 °C 29.77 in /  1008 hPa North 2.7 mph /  4.3 km/h 4.0 mph /  6.4 km/h 81 % 0.00 in /  0 mm
02:30 34.1 °F /  1.2 °C 28.9 °F /  -1.7 °C 29.77 in /  1008 hPa NNW 2.6 mph /  4.2 km/h 7.0 mph /  11.3 km/h 81 % 0.00 in /  0 mm
02:35 34.1 °F /  1.2 °C 28.9 °F /  -1.7 °C 29.77 in /  1008 hPa North 4.0 mph /  6.4 km/h 6.0 mph /  9.7 km/h 81 % 0.00 in /  0 mm
02:41 34.0 °F /  1.1 °C 28.8 °F /  -1.8 °C 29.77 in /  1008 hPa North 1.9 mph /  3.1 km/h 5.8 mph /  9.3 km/h 81 % 0.00 in /  0 mm
02:45 34.0 °F /  1.1 °C 29.1 °F /  -1.6 °C 29.77 in /  1008 hPa NNE 2.9 mph /  4.7 km/h 6.9 mph /  11.1 km/h 82 % 0.00 in /  0 mm
02:51 33.9 °F /  1.1 °C 29.0 °F /  -1.7 °C 29.77 in /  1008 hPa North 2.0 mph /  3.2 km/h 7.0 mph /  11.3 km/h 82 % 0.00 in /  0 mm
02:56 33.9 °F /  1.1 °C 29.0 °F /  -1.7 °C 29.77 in /  1008 hPa North 2.0 mph /  3.2 km/h 8.0 mph /  12.9 km/h 82 % 0.00 in /  0 mm
03:01 33.9 °F /  1.1 °C 29.0 °F /  -1.7 °C 29.77 in /  1008 hPa NNW 2.8 mph /  4.5 km/h 6.9 mph /  11.1 km/h 82 % 0.00 in /  0 mm
03:06 33.8 °F /  1 °C 28.9 °F /  -1.7 °C 29.77 in /  1008 hPa NNW 3.1 mph /  5 km/h 5.8 mph /  9.3 km/h 82 % 0.00 in /  0 mm
03:11 33.8 °F /  1 °C 28.9 °F /  -1.7 °C 29.77 in /  1008 hPa NNE 0.6 mph /  1 km/h 5.8 mph /  9.3 km/h 82 % 0.00 in /  0 mm
03:16 33.8 °F /  1 °C 28.9 °F /  -1.7 °C 29.77 in /  1008 hPa North 2.4 mph /  3.9 km/h 6.9 mph /  11.1 km/h 82 % 0.00 in /  0 mm
03:21 33.7 °F /  0.9 °C 28.8 °F /  -1.8 °C 29.77 in /  1008 hPa NNE 2.6 mph /  4.2 km/h 5.8 mph /  9.3 km/h 82 % 0.00 in /  0 mm
03:26 33.7 °F /  0.9 °C 28.8 °F /  -1.8 °C 29.77 in /  1008 hPa NNE 6.1 mph /  9.8 km/h 10.4 mph /  16.7 km/h 82 % 0.00 in /  0 mm
03:31 33.7 °F /  0.9 °C 29.1 °F /  -1.6 °C 29.77 in /  1008 hPa North 5.7 mph /  9.2 km/h 8.1 mph /  13 km/h 83 % 0.00 in /  0 mm
03:36 33.7 °F /  0.9 °C 28.8 °F /  -1.8 °C 29.77 in /  1008 hPa NNE 5.4 mph /  8.7 km/h 6.9 mph /  11.1 km/h 82 % 0.00 in /  0 mm
03:41 33.7 °F /  0.9 °C 28.8 °F /  -1.8 °C 29.77 in /  1008 hPa NNE 4.8 mph /  7.7 km/h 6.9 mph /  11.1 km/h 82 % 0.00 in /  0 mm
03:46 33.7 °F /  0.9 °C 28.8 °F /  -1.8 °C 29.76 in /  1007.7 hPa North 4.0 mph /  6.4 km/h 8.1 mph /  13 km/h 82 % 0.00 in /  0 mm
03:51 33.7 °F /  0.9 °C 28.8 °F /  -1.8 °C 29.76 in /  1007.7 hPa NNE 3.2 mph /  5.1 km/h 5.8 mph /  9.3 km/h 82 % 0.00 in /  0 mm
03:56 33.7 °F /  0.9 °C 29.1 °F /  -1.6 °C 29.76 in /  1007.7 hPa North 6.0 mph /  9.7 km/h 11.5 mph /  18.5 km/h 83 % 0.00 in /  0 mm
04:01 33.7 °F /  0.9 °C 28.8 °F /  -1.8 °C 29.76 in /  1007.7 hPa NNE 6.1 mph /  9.8 km/h 9.2 mph /  14.8 km/h 82 % 0.00 in /  0 mm
04:06 33.7 °F /  0.9 °C 29.1 °F /  -1.6 °C 29.76 in /  1007.7 hPa NNE 5.6 mph /  9 km/h 8.1 mph /  13 km/h 83 % 0.00 in /  0 mm
04:11 33.7 °F /  0.9 °C 29.1 °F /  -1.6 °C 29.76 in /  1007.7 hPa NNE 5.0 mph /  8 km/h 8.0 mph /  12.9 km/h 83 % 0.00 in /  0 mm
04:16 33.6 °F /  0.9 °C 29.0 °F /  -1.7 °C 29.76 in /  1007.7 hPa NNE 5.8 mph /  9.3 km/h 8.1 mph /  13 km/h 83 % 0.00 in /  0 mm
04:21 33.6 °F /  0.9 °C 29.0 °F /  -1.7 °C 29.77 in /  1008 hPa NNE 5.0 mph /  8 km/h 6.9 mph /  11.1 km/h 83 % 0.00 in /  0 mm
04:26 33.6 °F /  0.9 °C 29.0 °F /  -1.7 °C 29.77 in /  1008 hPa North 2.8 mph /  4.5 km/h 8.1 mph /  13 km/h 83 % 0.00 in /  0 mm
04:31 33.5 °F /  0.8 °C 28.9 °F /  -1.7 °C 29.77 in /  1008 hPa NNE 2.4 mph /  3.9 km/h 4.6 mph /  7.4 km/h 83 % 0.00 in /  0 mm
04:36 33.4 °F /  0.8 °C 28.8 °F /  -1.8 °C 29.77 in /  1008 hPa NNE 5.5 mph /  8.9 km/h 8.0 mph /  12.9 km/h 83 % 0.00 in /  0 mm
04:41 33.5 °F /  0.8 °C 28.9 °F /  -1.7 °C 29.77 in /  1008 hPa North 3.5 mph /  5.6 km/h 6.9 mph /  11.1 km/h 83 % 0.00 in /  0 mm
04:46 33.4 °F /  0.8 °C 28.8 °F /  -1.8 °C 29.77 in /  1008 hPa NNE 2.4 mph /  3.9 km/h 6.9 mph /  11.1 km/h 83 % 0.00 in /  0 mm
04:51 33.4 °F /  0.8 °C 29.1 °F /  -1.6 °C 29.78 in /  1008.4 hPa NNW 3.3 mph /  5.3 km/h 6.9 mph /  11.1 km/h 84 % 0.00 in /  0 mm
04:56 33.4 °F /  0.8 °C 29.1 °F /  -1.6 °C 29.78 in /  1008.4 hPa North 2.2 mph /  3.5 km/h 5.0 mph /  8 km/h 84 % 0.00 in /  0 mm
05:01 33.4 °F /  0.8 °C 29.1 °F /  -1.6 °C 29.78 in /  1008.4 hPa North 1.9 mph /  3.1 km/h 4.0 mph /  6.4 km/h 84 % 0.00 in /  0 mm
05:06 33.3 °F /  0.7 °C 29.0 °F /  -1.7 °C 29.78 in /  1008.4 hPa NNE 3.5 mph /  5.6 km/h 6.9 mph /  11.1 km/h 84 % 0.00 in /  0 mm
05:11 33.3 °F /  0.7 °C 29.0 °F /  -1.7 °C 29.78 in /  1008.4 hPa NNW 1.9 mph /  3.1 km/h 4.6 mph /  7.4 km/h 84 % 0.00 in /  0 mm
05:16 33.3 °F /  0.7 °C 29.0 °F /  -1.7 °C 29.79 in /  1008.7 hPa NNW 1.4 mph /  2.3 km/h 5.8 mph /  9.3 km/h 84 % 0.00 in /  0 mm
05:22 33.2 °F /  0.7 °C 28.9 °F /  -1.7 °C 29.79 in /  1008.7 hPa North 2.3 mph /  3.7 km/h 8.1 mph /  13 km/h 84 % 0.00 in /  0 mm
05:27 33.2 °F /  0.7 °C 28.9 °F /  -1.7 °C 29.79 in /  1008.7 hPa NNW 3.3 mph /  5.3 km/h 6.9 mph /  11.1 km/h 84 % 0.00 in /  0 mm
05:32 33.1 °F /  0.6 °C 28.8 °F /  -1.8 °C 29.79 in /  1008.7 hPa NNE 3.0 mph /  4.8 km/h 6.0 mph /  9.7 km/h 84 % 0.00 in /  0 mm
05:37 33.1 °F /  0.6 °C 28.8 °F /  -1.8 °C 29.79 in /  1008.7 hPa NNW 3.5 mph /  5.6 km/h 6.9 mph /  11.1 km/h 84 % 0.00 in /  0 mm
05:42 33.0 °F /  0.6 °C 28.7 °F /  -1.8 °C 29.79 in /  1008.7 hPa North 2.5 mph /  4 km/h 5.0 mph /  8 km/h 84 % 0.00 in /  0 mm
05:47 32.9 °F /  0.5 °C 28.6 °F /  -1.9 °C 29.79 in /  1008.7 hPa NNE 3.9 mph /  6.3 km/h 5.8 mph /  9.3 km/h 84 % 0.00 in /  0 mm
05:52 32.9 °F /  0.5 °C 28.6 °F /  -1.9 °C 29.79 in /  1008.7 hPa North 0.2 mph /  0.3 km/h 3.5 mph /  5.6 km/h 84 % 0.00 in /  0 mm
05:57 32.8 °F /  0.4 °C 28.5 °F /  -1.9 °C 29.79 in /  1008.7 hPa North 2.0 mph /  3.2 km/h 4.6 mph /  7.4 km/h 84 % 0.00 in /  0 mm
06:02 32.7 °F /  0.4 °C 28.4 °F /  -2 °C 29.79 in /  1008.7 hPa NE 1.0 mph /  1.6 km/h 3.5 mph /  5.6 km/h 84 % 0.00 in /  0 mm
06:07 32.7 °F /  0.4 °C 28.4 °F /  -2 °C 29.80 in /  1009 hPa Calm   1.2 mph /  1.9 km/h 84 % 0.00 in /  0 mm
06:12 32.6 °F /  0.3 °C 28.3 °F /  -2.1 °C 29.80 in /  1009 hPa Calm   1.2 mph /  1.9 km/h 84 % 0.00 in /  0 mm
06:17 32.6 °F /  0.3 °C 28.3 °F /  -2.1 °C 29.80 in /  1009 hPa NNE 1.3 mph /  2.1 km/h 3.0 mph /  4.8 km/h 84 % 0.00 in /  0 mm
06:22 32.5 °F /  0.3 °C 28.2 °F /  -2.1 °C 29.80 in /  1009 hPa NNE 0.7 mph /  1.1 km/h 3.5 mph /  5.6 km/h 84 % 0.00 in /  0 mm
06:27 32.5 °F /  0.3 °C 28.5 °F /  -1.9 °C 29.80 in /  1009 hPa NNE 0.4 mph /  0.6 km/h 2.3 mph /  3.7 km/h 85 % 0.00 in /  0 mm
06:32 32.5 °F /  0.3 °C 28.5 °F /  -1.9 °C 29.81 in /  1009.4 hPa NNE 1.6 mph /  2.6 km/h 3.5 mph /  5.6 km/h 85 % 0.00 in /  0 mm
06:37 32.5 °F /  0.3 °C 28.5 °F /  -1.9 °C 29.81 in /  1009.4 hPa NNE 0.2 mph /  0.3 km/h 2.3 mph /  3.7 km/h 85 % 0.00 in /  0 mm
06:42 32.5 °F /  0.3 °C 28.5 °F /  -1.9 °C 29.81 in /  1009.4 hPa NNE 2.9 mph /  4.7 km/h 3.5 mph /  5.6 km/h 85 % 0.00 in /  0 mm
06:47 32.7 °F /  0.4 °C 28.7 °F /  -1.8 °C 29.81 in /  1009.4 hPa Calm   1.2 mph /  1.9 km/h 85 % 0.00 in /  0 mm
06:52 32.9 °F /  0.5 °C 28.9 °F /  -1.7 °C 29.81 in /  1009.4 hPa Calm   1.2 mph /  1.9 km/h 85 % 0.00 in /  0 mm
06:57 33.1 °F /  0.6 °C 29.1 °F /  -1.6 °C 29.81 in /  1009.4 hPa North 2.2 mph /  3.5 km/h 5.8 mph /  9.3 km/h 85 % 0.00 in /  0 mm
07:02 33.4 °F /  0.8 °C 29.4 °F /  -1.4 °C 29.81 in /  1009.4 hPa NNE 1.1 mph /  1.8 km/h 3.5 mph /  5.6 km/h 85 % 0.00 in /  0 mm
07:07 33.7 °F /  0.9 °C 29.7 °F /  -1.3 °C 29.81 in /  1009.4 hPa North 3.9 mph /  6.3 km/h 8.1 mph /  13 km/h 85 % 0.00 in /  0 mm
07:13 34.1 °F /  1.2 °C 29.8 °F /  -1.2 °C 29.81 in /  1009.4 hPa North 2.2 mph /  3.5 km/h 4.6 mph /  7.4 km/h 84 % 0.00 in /  0 mm
07:18 34.6 °F /  1.4 °C 30.3 °F /  -0.9 °C 29.81 in /  1009.4 hPa NNE 1.7 mph /  2.7 km/h 4.6 mph /  7.4 km/h 84 % 0.00 in /  0 mm
07:23 35.1 °F /  1.7 °C 30.5 °F /  -0.8 °C 29.81 in /  1009.4 hPa North 2.6 mph /  4.2 km/h 3.5 mph /  5.6 km/h 83 % 0.00 in /  0 mm
07:28 35.6 °F /  2 °C 30.9 °F /  -0.6 °C 29.81 in /  1009.4 hPa NNE 1.0 mph /  1.6 km/h 3.5 mph /  5.6 km/h 83 % 0.00 in /  0 mm
07:33 36.0 °F /  2.2 °C 30.7 °F /  -0.7 °C 29.81 in /  1009.4 hPa NE 1.4 mph /  2.3 km/h 4.6 mph /  7.4 km/h 81 % 0.00 in /  0 mm
07:38 36.4 °F /  2.4 °C 31.1 °F /  -0.5 °C 29.81 in /  1009.4 hPa NE 1.6 mph /  2.6 km/h 2.3 mph /  3.7 km/h 81 % 0.00 in /  0 mm
07:43 36.9 °F /  2.7 °C 31.3 °F /  -0.4 °C 29.82 in /  1009.7 hPa NE 2.2 mph /  3.5 km/h 3.5 mph /  5.6 km/h 80 % 0.00 in /  0 mm
07:48 37.1 °F /  2.8 °C 31.2 °F /  -0.4 °C 29.81 in /  1009.4 hPa NNE 2.4 mph /  3.9 km/h 3.5 mph /  5.6 km/h 79 % 0.00 in /  0 mm
07:53 37.3 °F /  2.9 °C 30.7 °F /  -0.7 °C 29.81 in /  1009.4 hPa ENE 2.4 mph /  3.9 km/h 3.5 mph /  5.6 km/h 77 % 0.00 in /  0 mm
07:58 37.5 °F /  3.1 °C 30.9 °F /  -0.6 °C 29.82 in /  1009.7 hPa ENE 2.7 mph /  4.3 km/h 4.6 mph /  7.4 km/h 77 % 0.00 in /  0 mm
08:03 37.7 °F /  3.2 °C 31.1 °F /  -0.5 °C 29.82 in /  1009.7 hPa ENE 0.7 mph /  1.1 km/h 2.3 mph /  3.7 km/h 77 % 0.00 in /  0 mm
08:08 37.8 °F /  3.2 °C 30.9 °F /  -0.6 °C 29.82 in /  1009.7 hPa NE 2.7 mph /  4.3 km/h 3.5 mph /  5.6 km/h 76 % 0.00 in /  0 mm
08:13 37.9 °F /  3.3 °C 30.4 °F /  -0.9 °C 29.82 in /  1009.7 hPa NE 0.5 mph /  0.8 km/h 2.3 mph /  3.7 km/h 74 % 0.00 in /  0 mm
08:18 38.0 °F /  3.3 °C 30.8 °F /  -0.7 °C 29.82 in /  1009.7 hPa NE 0.6 mph /  1 km/h 3.5 mph /  5.6 km/h 75 % 0.00 in /  0 mm
08:23 38.4 °F /  3.6 °C 31.5 °F /  -0.3 °C 29.82 in /  1009.7 hPa NE 0.2 mph /  0.3 km/h 2.3 mph /  3.7 km/h 76 % 0.00 in /  0 mm
08:28 38.7 °F /  3.7 °C 31.5 °F /  -0.3 °C 29.82 in /  1009.7 hPa ENE 2.4 mph /  3.9 km/h 3.5 mph /  5.6 km/h 75 % 0.00 in /  0 mm
08:33 38.7 °F /  3.7 °C 31.1 °F /  -0.5 °C 29.82 in /  1009.7 hPa NE 2.9 mph /  4.7 km/h 4.0 mph /  6.4 km/h 74 % 0.00 in /  0 mm
08:39 38.7 °F /  3.7 °C 31.8 °F /  -0.1 °C 29.82 in /  1009.7 hPa ENE 2.7 mph /  4.3 km/h 4.6 mph /  7.4 km/h 76 % 0.00 in /  0 mm
08:44 38.8 °F /  3.8 °C 31.9 °F /  -0.1 °C 29.81 in /  1009.4 hPa ENE 1.6 mph /  2.6 km/h 3.5 mph /  5.6 km/h 76 % 0.00 in /  0 mm
08:49 38.8 °F /  3.8 °C 31.6 °F /  -0.2 °C 29.81 in /  1009.4 hPa NNE 2.4 mph /  3.9 km/h 5.0 mph /  8 km/h 75 % 0.00 in /  0 mm
08:54 38.7 °F /  3.7 °C 31.5 °F /  -0.3 °C 29.81 in /  1009.4 hPa NE 2.0 mph /  3.2 km/h 4.0 mph /  6.4 km/h 75 % 0.00 in /  0 mm
08:59 38.9 °F /  3.8 °C 31.6 °F /  -0.2 °C 29.81 in /  1009.4 hPa ENE 2.7 mph /  4.3 km/h 4.6 mph /  7.4 km/h 75 % 0.00 in /  0 mm
09:04 39.1 °F /  3.9 °C 32.2 °F /  0.1 °C 29.81 in /  1009.4 hPa ENE 2.4 mph /  3.9 km/h 7.0 mph /  11.3 km/h 76 % 0.00 in /  0 mm
09:09 39.1 °F /  3.9 °C 31.8 °F /  -0.1 °C 29.81 in /  1009.4 hPa ENE 3.4 mph /  5.5 km/h 4.6 mph /  7.4 km/h 75 % 0.00 in /  0 mm
09:14 39.2 °F /  4 °C 31.9 °F /  -0.1 °C 29.81 in /  1009.4 hPa ENE 3.6 mph /  5.8 km/h 6.9 mph /  11.1 km/h 75 % 0.00 in /  0 mm
09:19 39.3 °F /  4.1 °C 31.4 °F /  -0.3 °C 29.81 in /  1009.4 hPa NE 5.0 mph /  8 km/h 8.1 mph /  13 km/h 73 % 0.00 in /  0 mm
09:24 39.5 °F /  4.2 °C 31.6 °F /  -0.2 °C 29.81 in /  1009.4 hPa ENE 4.5 mph /  7.2 km/h 7.0 mph /  11.3 km/h 73 % 0.00 in /  0 mm
09:29 39.9 °F /  4.4 °C 31.9 °F /  -0.1 °C 29.81 in /  1009.4 hPa ENE 3.6 mph /  5.8 km/h 6.9 mph /  11.1 km/h 73 % 0.00 in /  0 mm
09:34 40.3 °F /  4.6 °C 32.0 °F /  0 °C 29.81 in /  1009.4 hPa East 4.2 mph /  6.8 km/h 5.8 mph /  9.3 km/h 72 % 0.00 in /  0 mm
09:39 40.7 °F /  4.8 °C 32.0 °F /  0 °C 29.81 in /  1009.4 hPa ENE 3.2 mph /  5.1 km/h 4.6 mph /  7.4 km/h 71 % 0.00 in /  0 mm
09:44 40.8 °F /  4.9 °C 31.4 °F /  -0.3 °C 29.81 in /  1009.4 hPa ENE 4.8 mph /  7.7 km/h 5.8 mph /  9.3 km/h 69 % 0.00 in /  0 mm
09:49 40.6 °F /  4.8 °C 31.2 °F /  -0.4 °C 29.81 in /  1009.4 hPa East 3.2 mph /  5.1 km/h 5.8 mph /  9.3 km/h 69 % 0.00 in /  0 mm
09:54 40.7 °F /  4.8 °C 31.3 °F /  -0.4 °C 29.81 in /  1009.4 hPa ENE 4.9 mph /  7.9 km/h 6.9 mph /  11.1 km/h 69 % 0.00 in /  0 mm
09:59 41.1 °F /  5.1 °C 32.4 °F /  0.2 °C 29.82 in /  1009.7 hPa ENE 2.8 mph /  4.5 km/h 4.6 mph /  7.4 km/h 71 % 0.00 in /  0 mm
10:04 41.4 °F /  5.2 °C 32.3 °F /  0.2 °C 29.81 in /  1009.4 hPa ENE 5.4 mph /  8.7 km/h 9.0 mph /  14.5 km/h 70 % 0.00 in /  0 mm
10:10 41.3 °F /  5.2 °C 31.5 °F /  -0.3 °C 29.81 in /  1009.4 hPa East 4.0 mph /  6.4 km/h 9.2 mph /  14.8 km/h 68 % 0.00 in /  0 mm
10:15 41.1 °F /  5.1 °C 31.3 °F /  -0.4 °C 29.80 in /  1009 hPa ENE 5.8 mph /  9.3 km/h 8.1 mph /  13 km/h 68 % 0.00 in /  0 mm
10:20 40.9 °F /  4.9 °C 30.8 °F /  -0.7 °C 29.80 in /  1009 hPa East 6.2 mph /  10 km/h 9.2 mph /  14.8 km/h 67 % 0.00 in /  0 mm
10:25 41.3 °F /  5.2 °C 31.9 °F /  -0.1 °C 29.81 in /  1009.4 hPa East 5.5 mph /  8.9 km/h 8.1 mph /  13 km/h 69 % 0.00 in /  0 mm
10:30 41.4 °F /  5.2 °C 31.3 °F /  -0.4 °C 29.80 in /  1009 hPa ENE 3.5 mph /  5.6 km/h 10.4 mph /  16.7 km/h 67 % 0.00 in /  0 mm
10:35 41.9 °F /  5.5 °C 32.1 °F /  0.1 °C 29.80 in /  1009 hPa NE 4.9 mph /  7.9 km/h 8.1 mph /  13 km/h 68 % 0.00 in /  0 mm
10:40 42.0 °F /  5.6 °C 31.8 °F /  -0.1 °C 29.80 in /  1009 hPa East 5.2 mph /  8.4 km/h 7.0 mph /  11.3 km/h 67 % 0.00 in /  0 mm
10:45 42.1 °F /  5.6 °C 31.9 °F /  -0.1 °C 29.81 in /  1009.4 hPa East 5.4 mph /  8.7 km/h 8.1 mph /  13 km/h 67 % 0.00 in /  0 mm
10:50 42.1 °F /  5.6 °C 32.3 °F /  0.2 °C 29.80 in /  1009 hPa ENE 5.6 mph /  9 km/h 10.4 mph /  16.7 km/h 68 % 0.00 in /  0 mm
10:55 42.5 °F /  5.8 °C 32.7 °F /  0.4 °C 29.80 in /  1009 hPa ENE 5.5 mph /  8.9 km/h 8.1 mph /  13 km/h 68 % 0.00 in /  0 mm
11:00 42.4 °F /  5.8 °C 31.8 °F /  -0.1 °C 29.80 in /  1009 hPa ENE 4.4 mph /  7.1 km/h 6.9 mph /  11.1 km/h 66 % 0.00 in /  0 mm
11:05 42.3 °F /  5.7 °C 31.4 °F /  -0.3 °C 29.80 in /  1009 hPa ENE 5.0 mph /  8 km/h 7.0 mph /  11.3 km/h 65 % 0.00 in /  0 mm
11:10 42.4 °F /  5.8 °C 31.8 °F /  -0.1 °C 29.80 in /  1009 hPa ENE 3.6 mph /  5.8 km/h 4.6 mph /  7.4 km/h 66 % 0.00 in /  0 mm
11:15 42.4 °F /  5.8 °C 30.7 °F /  -0.7 °C 29.80 in /  1009 hPa ENE 4.3 mph /  6.9 km/h 6.9 mph /  11.1 km/h 63 % 0.00 in /  0 mm
11:20 42.4 °F /  5.8 °C 31.5 °F /  -0.3 °C 29.80 in /  1009 hPa ENE 4.9 mph /  7.9 km/h 6.9 mph /  11.1 km/h 65 % 0.00 in /  0 mm
11:25 42.3 °F /  5.7 °C 31.4 °F /  -0.3 °C 29.80 in /  1009 hPa ENE 4.1 mph /  6.6 km/h 6.9 mph /  11.1 km/h 65 % 0.00 in /  0 mm
11:30 42.5 °F /  5.8 °C 31.9 °F /  -0.1 °C 29.80 in /  1009 hPa NE 4.1 mph /  6.6 km/h 6.9 mph /  11.1 km/h 66 % 0.00 in /  0 mm
11:35 42.5 °F /  5.8 °C 31.9 °F /  -0.1 °C 29.80 in /  1009 hPa ENE 2.6 mph /  4.2 km/h 9.0 mph /  14.5 km/h 66 % 0.00 in /  0 mm
11:40 42.7 °F /  5.9 °C 32.5 °F /  0.3 °C 29.80 in /  1009 hPa ENE 3.2 mph /  5.1 km/h 5.8 mph /  9.3 km/h 67 % 0.00 in /  0 mm
11:46 42.9 °F /  6.1 °C 31.9 °F /  -0.1 °C 29.79 in /  1008.7 hPa ENE 3.4 mph /  5.5 km/h 6.9 mph /  11.1 km/h 65 % 0.00 in /  0 mm
11:51 43.1 °F /  6.2 °C 31.7 °F /  -0.2 °C 29.79 in /  1008.7 hPa ENE 6.0 mph /  9.7 km/h 8.0 mph /  12.9 km/h 64 % 0.00 in /  0 mm
11:55 42.9 °F /  6.1 °C 31.9 °F /  -0.1 °C 29.79 in /  1008.7 hPa ENE 5.0 mph /  8 km/h 7.0 mph /  11.3 km/h 65 % 0.00 in /  0 mm
12:01 42.9 °F /  6.1 °C 31.2 °F /  -0.4 °C 29.78 in /  1008.4 hPa ENE 3.8 mph /  6.1 km/h 8.1 mph /  13 km/h 63 % 0.00 in /  0 mm
12:06 42.8 °F /  6 °C 31.1 °F /  -0.5 °C 29.78 in /  1008.4 hPa ENE 6.5 mph /  10.5 km/h 9.2 mph /  14.8 km/h 63 % 0.00 in /  0 mm
12:11 42.4 °F /  5.8 °C 30.3 °F /  -0.9 °C 29.78 in /  1008.4 hPa ENE 5.0 mph /  8 km/h 9.2 mph /  14.8 km/h 62 % 0.00 in /  0 mm
12:16 42.4 °F /  5.8 °C 31.8 °F /  -0.1 °C 29.77 in /  1008 hPa ENE 4.1 mph /  6.6 km/h 8.1 mph /  13 km/h 66 % 0.00 in /  0 mm
12:21 43.0 °F /  6.1 °C 32.0 °F /  0 °C 29.77 in /  1008 hPa NE 3.6 mph /  5.8 km/h 4.6 mph /  7.4 km/h 65 % 0.00 in /  0 mm
12:26 43.4 °F /  6.3 °C 30.8 °F /  -0.7 °C 29.77 in /  1008 hPa ENE 4.0 mph /  6.4 km/h 5.8 mph /  9.3 km/h 61 % 0.00 in /  0 mm
12:31 43.3 °F /  6.3 °C 29.9 °F /  -1.2 °C 29.76 in /  1007.7 hPa ENE 3.8 mph /  6.1 km/h 6.9 mph /  11.1 km/h 59 % 0.00 in /  0 mm
12:36 43.5 °F /  6.4 °C 31.3 °F /  -0.4 °C 29.76 in /  1007.7 hPa ENE 2.4 mph /  3.9 km/h 5.0 mph /  8 km/h 62 % 0.00 in /  0 mm
12:41 43.7 °F /  6.5 °C 29.9 °F /  -1.2 °C 29.76 in /  1007.7 hPa ENE 5.0 mph /  8 km/h 6.9 mph /  11.1 km/h 58 % 0.00 in /  0 mm
12:46 43.8 °F /  6.6 °C 30.4 °F /  -0.9 °C 29.76 in /  1007.7 hPa NE 2.7 mph /  4.3 km/h 5.0 mph /  8 km/h 59 % 0.00 in /  0 mm
12:51 44.7 °F /  7.1 °C 32.5 °F /  0.3 °C 29.75 in /  1007.3 hPa ENE 3.4 mph /  5.5 km/h 5.0 mph /  8 km/h 62 % 0.00 in /  0 mm
12:56 45.2 °F /  7.3 °C 31.3 °F /  -0.4 °C 29.75 in /  1007.3 hPa East 3.0 mph /  4.8 km/h 4.6 mph /  7.4 km/h 58 % 0.00 in /  0 mm
13:01 45.4 °F /  7.4 °C 30.6 °F /  -0.8 °C 29.75 in /  1007.3 hPa East 2.8 mph /  4.5 km/h 4.6 mph /  7.4 km/h 56 % 0.00 in /  0 mm
13:06 45.5 °F /  7.5 °C 29.3 °F /  -1.5 °C 29.75 in /  1007.3 hPa ENE 3.2 mph /  5.1 km/h 4.6 mph /  7.4 km/h 53 % 0.00 in /  0 mm
13:11 45.8 °F /  7.7 °C 30.5 °F /  -0.8 °C 29.75 in /  1007.3 hPa ENE 2.8 mph /  4.5 km/h 4.6 mph /  7.4 km/h 55 % 0.00 in /  0 mm
13:17 45.6 °F /  7.6 °C 29.9 °F /  -1.2 °C 29.75 in /  1007.3 hPa NE 2.8 mph /  4.5 km/h 4.6 mph /  7.4 km/h 54 % 0.00 in /  0 mm
13:22 45.7 °F /  7.6 °C 29.5 °F /  -1.4 °C 29.74 in /  1007 hPa NE 3.1 mph /  5 km/h 4.6 mph /  7.4 km/h 53 % 0.00 in /  0 mm
13:27 45.6 °F /  7.6 °C 29.4 °F /  -1.4 °C 29.75 in /  1007.3 hPa ENE 2.8 mph /  4.5 km/h 4.0 mph /  6.4 km/h 53 % 0.00 in /  0 mm
13:32 45.8 °F /  7.7 °C 30.1 °F /  -1.1 °C 29.74 in /  1007 hPa ENE 2.4 mph /  3.9 km/h 4.0 mph /  6.4 km/h 54 % 0.00 in /  0 mm
13:37 45.9 °F /  7.7 °C 29.7 °F /  -1.3 °C 29.74 in /  1007 hPa ENE 2.3 mph /  3.7 km/h 3.5 mph /  5.6 km/h 53 % 0.00 in /  0 mm
13:42 45.6 °F /  7.6 °C 30.3 °F /  -0.9 °C 29.74 in /  1007 hPa ENE 2.5 mph /  4 km/h 4.6 mph /  7.4 km/h 55 % 0.00 in /  0 mm
13:47 45.5 °F /  7.5 °C 29.3 °F /  -1.5 °C 29.74 in /  1007 hPa ENE 2.0 mph /  3.2 km/h 3.5 mph /  5.6 km/h 53 % 0.00 in /  0 mm
13:52 45.4 °F /  7.4 °C 29.3 °F /  -1.5 °C 29.74 in /  1007 hPa ENE 1.7 mph /  2.7 km/h 3.5 mph /  5.6 km/h 53 % 0.00 in /  0 mm
13:57 45.2 °F /  7.3 °C 29.1 °F /  -1.6 °C 29.74 in /  1007 hPa NE 2.6 mph /  4.2 km/h 4.0 mph /  6.4 km/h 53 % 0.00 in /  0 mm
14:02 45.0 °F /  7.2 °C 29.8 °F /  -1.2 °C 29.75 in /  1007.3 hPa ENE 1.5 mph /  2.4 km/h 3.5 mph /  5.6 km/h 55 % 0.00 in /  0 mm
14:07 44.7 °F /  7.1 °C 29.5 °F /  -1.4 °C 29.74 in /  1007 hPa ENE 2.3 mph /  3.7 km/h 3.5 mph /  5.6 km/h 55 % 0.00 in /  0 mm
14:12 44.9 °F /  7.2 °C 30.6 °F /  -0.8 °C 29.74 in /  1007 hPa ENE 0.7 mph /  1.1 km/h 3.5 mph /  5.6 km/h 57 % 0.00 in /  0 mm
14:17 45.2 °F /  7.3 °C 30.4 °F /  -0.9 °C 29.74 in /  1007 hPa ENE 1.6 mph /  2.6 km/h 3.5 mph /  5.6 km/h 56 % 0.00 in /  0 mm
14:22 45.1 °F /  7.3 °C 29.9 °F /  -1.2 °C 29.74 in /  1007 hPa ENE 2.5 mph /  4 km/h 4.6 mph /  7.4 km/h 55 % 0.00 in /  0 mm
14:27 44.7 °F /  7.1 °C 30.8 °F /  -0.7 °C 29.73 in /  1006.7 hPa ENE 2.5 mph /  4 km/h 3.5 mph /  5.6 km/h 58 % 0.00 in /  0 mm
14:32 44.5 °F /  6.9 °C 32.3 °F /  0.2 °C 29.73 in /  1006.7 hPa NE 3.9 mph /  6.3 km/h 6.9 mph /  11.1 km/h 62 % 0.00 in /  0 mm
14:37 44.0 °F /  6.7 °C 30.6 °F /  -0.8 °C 29.73 in /  1006.7 hPa ENE 2.6 mph /  4.2 km/h 3.5 mph /  5.6 km/h 59 % 0.00 in /  0 mm
14:42 43.7 °F /  6.5 °C 31.1 °F /  -0.5 °C 29.73 in /  1006.7 hPa ENE 1.4 mph /  2.3 km/h 3.5 mph /  5.6 km/h 61 % 0.00 in /  0 mm
14:47 43.7 °F /  6.5 °C 31.5 °F /  -0.3 °C 29.73 in /  1006.7 hPa ENE 2.6 mph /  4.2 km/h 5.0 mph /  8 km/h 62 % 0.00 in /  0 mm
14:53 43.6 °F /  6.4 °C 30.2 °F /  -1 °C 29.73 in /  1006.7 hPa ENE 3.1 mph /  5 km/h 4.6 mph /  7.4 km/h 59 % 0.00 in /  0 mm
14:58 43.4 °F /  6.3 °C 30.0 °F /  -1.1 °C 29.73 in /  1006.7 hPa ENE 2.0 mph /  3.2 km/h 3.5 mph /  5.6 km/h 59 % 0.00 in /  0 mm
15:03 43.2 °F /  6.2 °C 29.8 °F /  -1.2 °C 29.73 in /  1006.7 hPa ENE 2.5 mph /  4 km/h 4.6 mph /  7.4 km/h 59 % 0.00 in /  0 mm
15:08 43.1 °F /  6.2 °C 29.7 °F /  -1.3 °C 29.73 in /  1006.7 hPa ENE 1.2 mph /  1.9 km/h 4.6 mph /  7.4 km/h 59 % 0.00 in /  0 mm
15:13 42.9 °F /  6.1 °C 30.4 °F /  -0.9 °C 29.73 in /  1006.7 hPa ENE 4.3 mph /  6.9 km/h 8.1 mph /  13 km/h 61 % 0.00 in /  0 mm
15:18 42.6 °F /  5.9 °C 29.3 °F /  -1.5 °C 29.73 in /  1006.7 hPa ENE 1.6 mph /  2.6 km/h 3.5 mph /  5.6 km/h 59 % 0.00 in /  0 mm
15:23 42.3 °F /  5.7 °C 29.8 °F /  -1.2 °C 29.73 in /  1006.7 hPa ENE 2.1 mph /  3.4 km/h 3.5 mph /  5.6 km/h 61 % 0.00 in /  0 mm
15:28 42.1 °F /  5.6 °C 30.4 °F /  -0.9 °C 29.73 in /  1006.7 hPa ENE 3.8 mph /  6.1 km/h 5.8 mph /  9.3 km/h 63 % 0.00 in /  0 mm
15:33 42.0 °F /  5.6 °C 30.3 °F /  -0.9 °C 29.73 in /  1006.7 hPa ENE 5.4 mph /  8.7 km/h 7.0 mph /  11.3 km/h 63 % 0.00 in /  0 mm
15:38 41.9 °F /  5.5 °C 30.6 °F /  -0.8 °C 29.73 in /  1006.7 hPa NE 3.9 mph /  6.3 km/h 6.9 mph /  11.1 km/h 64 % 0.00 in /  0 mm
15:43 41.9 °F /  5.5 °C 30.6 °F /  -0.8 °C 29.73 in /  1006.7 hPa East 1.2 mph /  1.9 km/h 3.5 mph /  5.6 km/h 64 % 0.00 in /  0 mm
15:48 42.1 °F /  5.6 °C 31.2 °F /  -0.4 °C 29.73 in /  1006.7 hPa SSE 2.9 mph /  4.7 km/h 5.0 mph /  8 km/h 65 % 0.00 in /  0 mm
15:53 42.6 °F /  5.9 °C 31.3 °F /  -0.4 °C 29.73 in /  1006.7 hPa SE 5.3 mph /  8.5 km/h 8.0 mph /  12.9 km/h 64 % 0.00 in /  0 mm
15:58 42.9 °F /  6.1 °C 30.8 °F /  -0.7 °C 29.73 in /  1006.7 hPa SSE 0.8 mph /  1.3 km/h 4.6 mph /  7.4 km/h 62 % 0.00 in /  0 mm
16:04 43.1 °F /  6.2 °C 31.0 °F /  -0.6 °C 29.73 in /  1006.7 hPa SSE 3.3 mph /  5.3 km/h 6.9 mph /  11.1 km/h 62 % 0.00 in /  0 mm
16:06 43.2 °F /  6.2 °C 31.4 °F /  -0.3 °C 29.73 in /  1006.7 hPa SSE 2.4 mph /  3.9 km/h 4.6 mph /  7.4 km/h 63 % 0.00 in /  0 mm
16:12 43.3 °F /  6.3 °C 30.7 °F /  -0.7 °C 29.73 in /  1006.7 hPa SSE 5.4 mph /  8.7 km/h 9.2 mph /  14.8 km/h 61 % 0.00 in /  0 mm
16:17 43.2 °F /  6.2 °C 30.6 °F /  -0.8 °C 29.73 in /  1006.7 hPa South 5.9 mph /  9.5 km/h 8.1 mph /  13 km/h 61 % 0.00 in /  0 mm
16:22 43.0 °F /  6.1 °C 30.9 °F /  -0.6 °C 29.73 in /  1006.7 hPa SSE 5.0 mph /  8 km/h 6.9 mph /  11.1 km/h 62 % 0.00 in /  0 mm
16:27 42.9 °F /  6.1 °C 30.8 °F /  -0.7 °C 29.73 in /  1006.7 hPa SSE 3.7 mph /  6 km/h 5.0 mph /  8 km/h 62 % 0.00 in /  0 mm
16:32 42.8 °F /  6 °C 30.7 °F /  -0.7 °C 29.73 in /  1006.7 hPa South 2.7 mph /  4.3 km/h 6.0 mph /  9.7 km/h 62 % 0.00 in /  0 mm
16:37 42.8 °F /  6 °C 30.7 °F /  -0.7 °C 29.73 in /  1006.7 hPa South 3.2 mph /  5.1 km/h 4.6 mph /  7.4 km/h 62 % 0.00 in /  0 mm
16:38 42.8 °F /  6 °C 30.7 °F /  -0.7 °C 29.73 in /  1006.7 hPa SSW 1.2 mph /  1.9 km/h 4.0 mph /  6.4 km/h 62 % 0.00 in /  0 mm
16:43 42.6 °F /  5.9 °C 30.5 °F /  -0.8 °C 29.74 in /  1007 hPa South 5.2 mph /  8.4 km/h 8.0 mph /  12.9 km/h 62 % 0.00 in /  0 mm
16:48 42.4 °F /  5.8 °C 29.9 °F /  -1.2 °C 29.74 in /  1007 hPa SE 7.5 mph /  12.1 km/h 10.4 mph /  16.7 km/h 61 % 0.00 in /  0 mm
16:53 42.0 °F /  5.6 °C 29.5 °F /  -1.4 °C 29.74 in /  1007 hPa SSE 0.6 mph /  1 km/h 3.0 mph /  4.8 km/h 61 % 0.00 in /  0 mm
16:58 41.8 °F /  5.4 °C 29.7 °F /  -1.3 °C 29.74 in /  1007 hPa SSE 5.4 mph /  8.7 km/h 6.9 mph /  11.1 km/h 62 % 0.00 in /  0 mm
17:03 41.5 °F /  5.3 °C 29.4 °F /  -1.4 °C 29.74 in /  1007 hPa South 3.1 mph /  5 km/h 8.1 mph /  13 km/h 62 % 0.00 in /  0 mm
17:08 41.3 °F /  5.2 °C 29.6 °F /  -1.3 °C 29.74 in /  1007 hPa South 2.2 mph /  3.5 km/h 6.9 mph /  11.1 km/h 63 % 0.00 in /  0 mm
17:13 41.0 °F /  5 °C 29.4 °F /  -1.4 °C 29.75 in /  1007.3 hPa SSW 3.0 mph /  4.8 km/h 5.8 mph /  9.3 km/h 63 % 0.00 in /  0 mm
17:14 41.0 °F /  5 °C 29.4 °F /  -1.4 °C 29.74 in /  1007 hPa SE 3.3 mph /  5.3 km/h 5.8 mph /  9.3 km/h 63 % 0.00 in /  0 mm
17:19 40.7 °F /  4.8 °C 29.5 °F /  -1.4 °C 29.75 in /  1007.3 hPa SSE 4.1 mph /  6.6 km/h 6.9 mph /  11.1 km/h 64 % 0.00 in /  0 mm
17:24 40.6 °F /  4.8 °C 29.7 °F /  -1.3 °C 29.75 in /  1007.3 hPa South 3.9 mph /  6.3 km/h 4.6 mph /  7.4 km/h 65 % 0.00 in /  0 mm
17:29 40.5 °F /  4.7 °C 29.7 °F /  -1.3 °C 29.74 in /  1007 hPa SSE 3.3 mph /  5.3 km/h 6.9 mph /  11.1 km/h 65 % 0.00 in /  0 mm
17:33 40.4 °F /  4.7 °C 29.6 °F /  -1.3 °C 29.74 in /  1007 hPa SSE 6.3 mph /  10.1 km/h 11.5 mph /  18.5 km/h 65 % 0.00 in /  0 mm
17:38 40.1 °F /  4.5 °C 29.3 °F /  -1.5 °C 29.74 in /  1007 hPa South 5.0 mph /  8 km/h 11.5 mph /  18.5 km/h 65 % 0.00 in /  0 mm
17:43 40.0 °F /  4.4 °C 29.6 °F /  -1.3 °C 29.74 in /  1007 hPa SE 3.5 mph /  5.6 km/h 8.1 mph /  13 km/h 66 % 0.00 in /  0 mm
17:48 39.9 °F /  4.4 °C 29.8 °F /  -1.2 °C 29.74 in /  1007 hPa SSE 4.2 mph /  6.8 km/h 7.0 mph /  11.3 km/h 67 % 0.00 in /  0 mm
17:53 39.8 °F /  4.3 °C 30.1 °F /  -1.1 °C 29.73 in /  1006.7 hPa SE 2.7 mph /  4.3 km/h 6.9 mph /  11.1 km/h 68 % 0.00 in /  0 mm
17:59 39.7 °F /  4.3 °C 30.0 °F /  -1.1 °C 29.73 in /  1006.7 hPa SE 5.7 mph /  9.2 km/h 11.5 mph /  18.5 km/h 68 % 0.00 in /  0 mm
18:04 39.5 °F /  4.2 °C 29.8 °F /  -1.2 °C 29.73 in /  1006.7 hPa ESE 3.6 mph /  5.8 km/h 8.1 mph /  13 km/h 68 % 0.00 in /  0 mm
18:09 39.3 °F /  4.1 °C 29.6 °F /  -1.3 °C 29.73 in /  1006.7 hPa South 4.0 mph /  6.4 km/h 10.4 mph /  16.7 km/h 68 % 0.00 in /  0 mm
18:14 39.1 °F /  3.9 °C 29.8 °F /  -1.2 °C 29.73 in /  1006.7 hPa SSE 7.0 mph /  11.3 km/h 10.4 mph /  16.7 km/h 69 % 0.00 in /  0 mm
18:19 38.9 °F /  3.8 °C 29.9 °F /  -1.2 °C 29.73 in /  1006.7 hPa SSE 5.1 mph /  8.2 km/h 8.1 mph /  13 km/h 70 % 0.00 in /  0 mm
18:24 38.8 °F /  3.8 °C 30.2 °F /  -1 °C 29.73 in /  1006.7 hPa SSE 3.2 mph /  5.1 km/h 5.8 mph /  9.3 km/h 71 % 0.00 in /  0 mm
18:29 38.7 °F /  3.7 °C 30.1 °F /  -1.1 °C 29.73 in /  1006.7 hPa SSE 3.8 mph /  6.1 km/h 10.0 mph /  16.1 km/h 71 % 0.00 in /  0 mm
18:34 38.6 °F /  3.7 °C 30.0 °F /  -1.1 °C 29.73 in /  1006.7 hPa SSE 2.2 mph /  3.5 km/h 4.6 mph /  7.4 km/h 71 % 0.00 in /  0 mm
18:40 38.6 °F /  3.7 °C 30.4 °F /  -0.9 °C 29.74 in /  1007 hPa SE 1.5 mph /  2.4 km/h 6.9 mph /  11.1 km/h 72 % 0.00 in /  0 mm
18:45 38.5 °F /  3.6 °C 30.3 °F /  -0.9 °C 29.74 in /  1007 hPa SE 4.9 mph /  7.9 km/h 5.8 mph /  9.3 km/h 72 % 0.00 in /  0 mm
18:50 38.4 °F /  3.6 °C 30.5 °F /  -0.8 °C 29.74 in /  1007 hPa SSE 2.8 mph /  4.5 km/h 6.9 mph /  11.1 km/h 73 % 0.00 in /  0 mm
18:55 38.3 °F /  3.5 °C 30.4 °F /  -0.9 °C 29.74 in /  1007 hPa SE 2.4 mph /  3.9 km/h 9.2 mph /  14.8 km/h 73 % 0.00 in /  0 mm
19:00 38.2 °F /  3.4 °C 30.6 °F /  -0.8 °C 29.74 in /  1007 hPa ESE 4.1 mph /  6.6 km/h 8.1 mph /  13 km/h 74 % 0.00 in /  0 mm
19:05 38.1 °F /  3.4 °C 30.5 °F /  -0.8 °C 29.74 in /  1007 hPa ESE 3.8 mph /  6.1 km/h 6.9 mph /  11.1 km/h 74 % 0.00 in /  0 mm
19:10 38.1 °F /  3.4 °C 30.9 °F /  -0.6 °C 29.74 in /  1007 hPa SE 4.0 mph /  6.4 km/h 8.1 mph /  13 km/h 75 % 0.00 in /  0 mm
19:15 38.0 °F /  3.3 °C 30.8 °F /  -0.7 °C 29.73 in /  1006.7 hPa SSE 7.7 mph /  12.4 km/h 11.5 mph /  18.5 km/h 75 % 0.00 in /  0 mm
19:20 38.0 °F /  3.3 °C 30.8 °F /  -0.7 °C 29.74 in /  1007 hPa SSE 4.9 mph /  7.9 km/h 10.0 mph /  16.1 km/h 75 % 0.00 in /  0 mm
19:25 37.9 °F /  3.3 °C 30.7 °F /  -0.7 °C 29.74 in /  1007 hPa SSE 1.2 mph /  1.9 km/h 3.5 mph /  5.6 km/h 75 % 0.00 in /  0 mm
19:30 37.9 °F /  3.3 °C 30.4 °F /  -0.9 °C 29.74 in /  1007 hPa SE 9.3 mph /  15 km/h 11.5 mph /  18.5 km/h 74 % 0.00 in /  0 mm
19:35 37.9 °F /  3.3 °C 30.4 °F /  -0.9 °C 29.74 in /  1007 hPa SE 2.8 mph /  4.5 km/h 6.9 mph /  11.1 km/h 74 % 0.00 in /  0 mm
19:40 37.8 °F /  3.2 °C 30.3 °F /  -0.9 °C 29.74 in /  1007 hPa ESE 3.5 mph /  5.6 km/h 8.1 mph /  13 km/h 74 % 0.00 in /  0 mm
19:45 37.7 °F /  3.2 °C 30.5 °F /  -0.8 °C 29.73 in /  1006.7 hPa SSE 6.8 mph /  10.9 km/h 10.4 mph /  16.7 km/h 75 % 0.00 in /  0 mm
19:50 37.6 °F /  3.1 °C 30.4 °F /  -0.9 °C 29.75 in /  1007.3 hPa ESE 2.8 mph /  4.5 km/h 5.0 mph /  8 km/h 75 % 0.00 in /  0 mm
19:55 37.5 °F /  3.1 °C 30.3 °F /  -0.9 °C 29.75 in /  1007.3 hPa SSE 5.9 mph /  9.5 km/h 9.2 mph /  14.8 km/h 75 % 0.00 in /  0 mm
20:00 37.4 °F /  3 °C 30.2 °F /  -1 °C 29.75 in /  1007.3 hPa SE 4.1 mph /  6.6 km/h 9.2 mph /  14.8 km/h 75 % 0.00 in /  0 mm
20:05 37.4 °F /  3 °C 30.2 °F /  -1 °C 29.75 in /  1007.3 hPa SE 0.8 mph /  1.3 km/h 4.6 mph /  7.4 km/h 75 % 0.00 in /  0 mm
20:07 37.4 °F /  3 °C 30.2 °F /  -1 °C 29.74 in /  1007 hPa SE 0.7 mph /  1.1 km/h 3.0 mph /  4.8 km/h 75 % 0.00 in /  0 mm
20:12 37.3 °F /  2.9 °C 30.4 °F /  -0.9 °C 29.74 in /  1007 hPa SE 5.3 mph /  8.5 km/h 8.0 mph /  12.9 km/h 76 % 0.00 in /  0 mm
20:17 37.2 °F /  2.9 °C 30.3 °F /  -0.9 °C 29.75 in /  1007.3 hPa SE 3.0 mph /  4.8 km/h 6.9 mph /  11.1 km/h 76 % 0.00 in /  0 mm
20:22 37.2 °F /  2.9 °C 30.3 °F /  -0.9 °C 29.75 in /  1007.3 hPa SSE 3.8 mph /  6.1 km/h 8.1 mph /  13 km/h 76 % 0.00 in /  0 mm
20:27 37.2 °F /  2.9 °C 30.3 °F /  -0.9 °C 29.76 in /  1007.7 hPa SSE 4.0 mph /  6.4 km/h 6.9 mph /  11.1 km/h 76 % 0.00 in /  0 mm
20:32 37.3 °F /  2.9 °C 30.4 °F /  -0.9 °C 29.76 in /  1007.7 hPa SE 4.5 mph /  7.2 km/h 9.2 mph /  14.8 km/h 76 % 0.00 in /  0 mm
20:37 37.4 °F /  3 °C 30.5 °F /  -0.8 °C 29.75 in /  1007.3 hPa SE 3.5 mph /  5.6 km/h 5.8 mph /  9.3 km/h 76 % 0.00 in /  0 mm
20:42 37.4 °F /  3 °C 30.5 °F /  -0.8 °C 29.75 in /  1007.3 hPa SSE 6.0 mph /  9.7 km/h 9.2 mph /  14.8 km/h 76 % 0.00 in /  0 mm
20:47 37.5 °F /  3.1 °C 30.6 °F /  -0.8 °C 29.75 in /  1007.3 hPa SE 2.1 mph /  3.4 km/h 9.2 mph /  14.8 km/h 76 % 0.00 in /  0 mm
20:52 37.5 °F /  3.1 °C 30.6 °F /  -0.8 °C 29.75 in /  1007.3 hPa SE 2.7 mph /  4.3 km/h 5.0 mph /  8 km/h 76 % 0.00 in /  0 mm
20:57 37.5 °F /  3.1 °C 30.6 °F /  -0.8 °C 29.74 in /  1007 hPa East 1.4 mph /  2.3 km/h 4.6 mph /  7.4 km/h 76 % 0.00 in /  0 mm
21:02 37.5 °F /  3.1 °C 30.9 °F /  -0.6 °C 29.74 in /  1007 hPa SE 2.1 mph /  3.4 km/h 2.3 mph /  3.7 km/h 77 % 0.00 in /  0 mm
21:07 37.6 °F /  3.1 °C 31.0 °F /  -0.6 °C 29.75 in /  1007.3 hPa ESE 3.5 mph /  5.6 km/h 6.9 mph /  11.1 km/h 77 % 0.00 in /  0 mm
21:12 37.6 °F /  3.1 °C 31.0 °F /  -0.6 °C 29.74 in /  1007 hPa East 3.5 mph /  5.6 km/h 5.8 mph /  9.3 km/h 77 % 0.00 in /  0 mm
21:17 37.5 °F /  3.1 °C 30.6 °F /  -0.8 °C 29.74 in /  1007 hPa ESE 3.4 mph /  5.5 km/h 9.2 mph /  14.8 km/h 76 % 0.00 in /  0 mm
21:23 37.5 °F /  3.1 °C 30.9 °F /  -0.6 °C 29.74 in /  1007 hPa East 1.1 mph /  1.8 km/h 2.3 mph /  3.7 km/h 77 % 0.00 in /  0 mm
21:28 37.5 °F /  3.1 °C 30.9 °F /  -0.6 °C 29.75 in /  1007.3 hPa ESE 1.1 mph /  1.8 km/h 3.5 mph /  5.6 km/h 77 % 0.00 in /  0 mm
21:33 37.5 °F /  3.1 °C 30.6 °F /  -0.8 °C 29.75 in /  1007.3 hPa SE 3.4 mph /  5.5 km/h 6.9 mph /  11.1 km/h 76 % 0.00 in /  0 mm
21:38 37.5 °F /  3.1 °C 30.6 °F /  -0.8 °C 29.75 in /  1007.3 hPa ESE 0.4 mph /  0.6 km/h 2.3 mph /  3.7 km/h 76 % 0.00 in /  0 mm
21:43 37.5 °F /  3.1 °C 30.6 °F /  -0.8 °C 29.75 in /  1007.3 hPa East 1.5 mph /  2.4 km/h 3.5 mph /  5.6 km/h 76 % 0.00 in /  0 mm
21:48 37.5 °F /  3.1 °C 31.3 °F /  -0.4 °C 29.75 in /  1007.3 hPa East 1.1 mph /  1.8 km/h 2.3 mph /  3.7 km/h 78 % 0.00 in /  0 mm
21:53 37.5 °F /  3.1 °C 31.3 °F /  -0.4 °C 29.75 in /  1007.3 hPa East 1.6 mph /  2.6 km/h 5.0 mph /  8 km/h 78 % 0.00 in /  0 mm
21:58 37.4 °F /  3 °C 31.2 °F /  -0.4 °C 29.75 in /  1007.3 hPa East 1.6 mph /  2.6 km/h 5.8 mph /  9.3 km/h 78 % 0.00 in /  0 mm
22:03 37.4 °F /  3 °C 31.2 °F /  -0.4 °C 29.75 in /  1007.3 hPa East 1.2 mph /  1.9 km/h 4.6 mph /  7.4 km/h 78 % 0.00 in /  0 mm
22:08 37.3 °F /  2.9 °C 31.1 °F /  -0.5 °C 29.75 in /  1007.3 hPa ESE 2.3 mph /  3.7 km/h 4.6 mph /  7.4 km/h 78 % 0.00 in /  0 mm
22:13 37.3 °F /  2.9 °C 31.1 °F /  -0.5 °C 29.75 in /  1007.3 hPa ESE 1.4 mph /  2.3 km/h 4.6 mph /  7.4 km/h 78 % 0.00 in /  0 mm
22:18 37.3 °F /  2.9 °C 30.7 °F /  -0.7 °C 29.74 in /  1007 hPa East 3.6 mph /  5.8 km/h 8.1 mph /  13 km/h 77 % 0.00 in /  0 mm
22:23 37.2 °F /  2.9 °C 31.0 °F /  -0.6 °C 29.74 in /  1007 hPa East 2.6 mph /  4.2 km/h 4.6 mph /  7.4 km/h 78 % 0.00 in /  0 mm
22:28 37.2 °F /  2.9 °C 30.7 °F /  -0.7 °C 29.75 in /  1007.3 hPa East 0.7 mph /  1.1 km/h 3.0 mph /  4.8 km/h 77 % 0.00 in /  0 mm
22:33 37.2 °F /  2.9 °C 31.0 °F /  -0.6 °C 29.75 in /  1007.3 hPa East 1.3 mph /  2.1 km/h 2.3 mph /  3.7 km/h 78 % 0.00 in /  0 mm
22:38 37.1 °F /  2.8 °C 30.9 °F /  -0.6 °C 29.75 in /  1007.3 hPa Calm   2.3 mph /  3.7 km/h 78 % 0.00 in /  0 mm
22:44 37.1 °F /  2.8 °C 30.6 °F /  -0.8 °C 29.75 in /  1007.3 hPa ESE 3.5 mph /  5.6 km/h 9.2 mph /  14.8 km/h 77 % 0.00 in /  0 mm
22:49 37.1 °F /  2.8 °C 30.6 °F /  -0.8 °C 29.75 in /  1007.3 hPa ESE 3.3 mph /  5.3 km/h 9.2 mph /  14.8 km/h 77 % 0.00 in /  0 mm
22:54 37.1 °F /  2.8 °C 30.6 °F /  -0.8 °C 29.74 in /  1007 hPa East 1.3 mph /  2.1 km/h 5.8 mph /  9.3 km/h 77 % 0.00 in /  0 mm
22:59 37.1 °F /  2.8 °C 30.6 °F /  -0.8 °C 29.75 in /  1007.3 hPa East 3.9 mph /  6.3 km/h 8.1 mph /  13 km/h 77 % 0.00 in /  0 mm
23:04 37.1 °F /  2.8 °C 30.6 °F /  -0.8 °C 29.74 in /  1007 hPa East 3.6 mph /  5.8 km/h 5.8 mph /  9.3 km/h 77 % 0.00 in /  0 mm
23:09 37.0 °F /  2.8 °C 30.5 °F /  -0.8 °C 29.74 in /  1007 hPa ESE 3.6 mph /  5.8 km/h 6.9 mph /  11.1 km/h 77 % 0.00 in /  0 mm
23:14 37.0 °F /  2.8 °C 30.5 °F /  -0.8 °C 29.73 in /  1006.7 hPa East 2.4 mph /  3.9 km/h 5.8 mph /  9.3 km/h 77 % 0.00 in /  0 mm
23:19 37.0 °F /  2.8 °C 30.5 °F /  -0.8 °C 29.73 in /  1006.7 hPa East 1.4 mph /  2.3 km/h 5.0 mph /  8 km/h 77 % 0.00 in /  0 mm
23:24 37.0 °F /  2.8 °C 30.5 °F /  -0.8 °C 29.73 in /  1006.7 hPa East 1.5 mph /  2.4 km/h 3.5 mph /  5.6 km/h 77 % 0.00 in /  0 mm
23:29 37.0 °F /  2.8 °C 30.5 °F /  -0.8 °C 29.73 in /  1006.7 hPa East 2.4 mph /  3.9 km/h 5.8 mph /  9.3 km/h 77 % 0.00 in /  0 mm
23:34 37.0 °F /  2.8 °C 30.5 °F /  -0.8 °C 29.72 in /  1006.3 hPa ESE 5.7 mph /  9.2 km/h 8.1 mph /  13 km/h 77 % 0.00 in /  0 mm
23:39 37.0 °F /  2.8 °C 30.5 °F /  -0.8 °C 29.72 in /  1006.3 hPa ESE 1.4 mph /  2.3 km/h 5.8 mph /  9.3 km/h 77 % 0.00 in /  0 mm
23:44 36.9 °F /  2.7 °C 30.4 °F /  -0.9 °C 29.72 in /  1006.3 hPa East 3.2 mph /  5.1 km/h 5.8 mph /  9.3 km/h 77 % 0.00 in /  0 mm
23:49 37.0 °F /  2.8 °C 30.8 °F /  -0.7 °C 29.72 in /  1006.3 hPa East 2.8 mph /  4.5 km/h 6.9 mph /  11.1 km/h 78 % 0.00 in /  0 mm
23:55 37.0 °F /  2.8 °C 30.8 °F /  -0.7 °C 29.71 in /  1006 hPa East 3.1 mph /  5 km/h 6.9 mph /  11.1 km/h 78 % 0.00 in /  0 mm
Crab Meadow Weather
Compliments of Weather Underground - 3 mb

Script developed by  Jim McMurry - jmcmurry@mwt.net Adapted for the template by  Wim van der Kuil - Leuven-Template.eu

Weather Terms: Freeze Warning - Widespread temperatures at or below 32°F during the growing season. A freeze may occur with or without frost. A hard freeze occurs with temperatures below 28°F. Growing season is based on the average date of first and last freeze at O'Hare. It begins April 17 and ends October 27.